PWSweather.com
Personal Weather Stations
Station Observations
40SURVLA
Villa La Angostura, Villa La AngosturaAR

Villa La AngosturaVilla La AngosturaAR

Lat: -40.7307002, Lon: -71.6769804799115

Elevation: 2400

Station Type: Netatmo

Latest ConditionsUpdated 7:02:00 PM GMT-03:57 Friday, Jul 21, 2017
Currently Today's Max Today's Min Today's Average
Temperature 49.3°F9.6°C 52.5°F11.4°C 40.1°F4.5°C 47.0°F8.3°C
Dew Point 41.4°F5.2°C 44.4°F6.9°C 38.3°F3.5°C 41.8°F5.4°C
Winds 2.5 mph 4.0 kmh 2.5 mph 4.0 kmh - 1.7 mph 2.7 kmh
Wind Gusts 6.9 mph11.1 kmh 13.6 mph21.9 kmh - -
Humidity 79% 97% 75% 86%
Pressure 29.74 in1007.1 mb 30.00 in1015.9 mb 29.74 in1007.1 mb -
Hour Temp Dew Point Humidity Winds Wind Gusts Pressure Precip Precip Rate Daily Precip Total
07:02 PM 49.3°F9.6°C 41.4°F5.2°C 79% 2.5 mph 4.0 kmh 6.9 mph11.1 kmh 29.74 in1007.1 mb 0.00 in0.0 mm 0.00 in0.0 mm 0.00 in0.0 mm
06:51 PM 49.6°F9.8°C 41.4°F5.2°C 78% 2.5 mph NW4.0 kmh NW -- 29.74 in1007.1 mb 0.00 in0.0 mm 0.00 in0.0 mm 0.00 in0.0 mm
06:42 PM 50.0°F10.0°C 41.4°F5.2°C 77% 2.5 mph N4.0 kmh N 4.9 mph7.9 kmh 29.75 in1007.5 mb 0.00 in0.0 mm 0.00 in0.0 mm 0.00 in0.0 mm
06:36 PM 50.7°F10.4°C 41.9°F5.5°C 77% 1.8 mph N2.9 kmh N 6.9 mph11.1 kmh 29.74 in1007.1 mb 0.00 in0.0 mm 0.00 in0.0 mm 0.00 in0.0 mm
06:16 PM 51.4°F10.8°C 42.3°F5.7°C 76% 1.8 mph WSW2.9 kmh WSW 7.4 mph11.9 kmh 29.75 in1007.5 mb 0.00 in0.0 mm 0.00 in0.0 mm 0.00 in0.0 mm
05:57 PM 52.0°F11.1°C 42.4°F5.8°C 75% 0.7 mph W1.1 kmh W 6.3 mph10.1 kmh 29.75 in1007.5 mb 0.00 in0.0 mm 0.00 in0.0 mm 0.00 in0.0 mm
05:52 PM 51.8°F11.0°C 42.6°F5.9°C 76% 1.9 mph W3.1 kmh W -- 29.75 in1007.5 mb 0.00 in0.0 mm 0.00 in0.0 mm 0.00 in0.0 mm
05:37 PM 52.0°F11.1°C 42.8°F6.0°C 76% 2.5 mph N4.0 kmh N 7.4 mph11.9 kmh 29.76 in1007.8 mb 0.00 in0.0 mm 0.00 in0.0 mm 0.00 in0.0 mm
05:16 PM 52.3°F11.3°C 43.2°F6.2°C 76% 1.8 mph WNW2.9 kmh WNW 4.9 mph7.9 kmh 29.77 in1008.1 mb 0.00 in0.0 mm 0.00 in0.0 mm 0.00 in0.0 mm
04:57 PM 52.5°F11.4°C 43.0°F6.1°C 75% 1.8 mph SW2.9 kmh SW 4.3 mph6.9 kmh 29.78 in1008.5 mb 0.00 in0.0 mm 0.00 in0.0 mm 0.00 in0.0 mm
04:51 PM 52.5°F11.4°C 43.3°F6.3°C 76% 0.6 mph SW1.0 kmh SW -- 29.77 in1008.1 mb 0.00 in0.0 mm 0.00 in0.0 mm 0.00 in0.0 mm
04:37 PM 52.3°F11.3°C 43.2°F6.2°C 76% 1.8 mph NW2.9 kmh NW 6.9 mph11.1 kmh 29.78 in1008.5 mb 0.00 in0.0 mm 0.00 in0.0 mm 0.00 in0.0 mm
04:16 PM 52.2°F11.2°C 43.3°F6.3°C 77% 0.7 mph W1.1 kmh W 3.1 mph5.0 kmh 29.78 in1008.5 mb 0.00 in0.0 mm 0.00 in0.0 mm 0.00 in0.0 mm
04:05 PM 52.2°F11.2°C 42.6°F5.9°C 75% 1.9 mph WNW3.1 kmh WNW -- 29.79 in1008.8 mb 0.00 in0.0 mm 0.00 in0.0 mm 0.00 in0.0 mm
03:56 PM 52.0°F11.1°C 42.8°F6.0°C 76% 1.8 mph WNW2.9 kmh WNW 6.3 mph10.1 kmh 29.80 in1009.1 mb 0.00 in0.0 mm 0.00 in0.0 mm 0.00 in0.0 mm
03:37 PM 52.2°F11.2°C 43.0°F6.1°C 76% 1.8 mph NW2.9 kmh NW 6.3 mph10.1 kmh 29.80 in1009.1 mb 0.00 in0.0 mm 0.00 in0.0 mm 0.00 in0.0 mm
03:17 PM 51.8°F11.0°C 43.0°F6.1°C 77% 2.5 mph NW4.0 kmh NW 4.9 mph7.9 kmh 29.81 in1009.5 mb 0.00 in0.0 mm 0.00 in0.0 mm 0.00 in0.0 mm
03:06 PM 51.6°F10.9°C 43.2°F6.2°C 78% 1.9 mph W3.1 kmh W -- 29.82 in1009.8 mb 0.00 in0.0 mm 0.00 in0.0 mm 0.00 in0.0 mm
02:58 PM 51.6°F10.9°C 43.2°F6.2°C 78% 2.5 mph WSW4.0 kmh WSW 6.9 mph11.1 kmh 29.83 in1010.2 mb 0.00 in0.0 mm 0.00 in0.0 mm 0.00 in0.0 mm
02:36 PM 51.4°F10.8°C 43.5°F6.4°C 79% 2.5 mph W4.0 kmh W 9.8 mph15.8 kmh 29.84 in1010.5 mb 0.00 in0.0 mm 0.00 in0.0 mm 0.00 in0.0 mm
02:17 PM 51.3°F10.7°C 44.1°F6.7°C 81% 1.8 mph W2.9 kmh W 6.9 mph11.1 kmh 29.85 in1010.8 mb 0.00 in0.0 mm 0.00 in0.0 mm 0.00 in0.0 mm
01:54 PM 51.1°F10.6°C 43.9°F6.6°C 81% 1.9 mph WSW3.1 kmh WSW -- 29.85 in1010.8 mb 0.00 in0.0 mm 0.00 in0.0 mm 0.00 in0.0 mm
01:45 PM 51.1°F10.6°C 43.5°F6.4°C 80% 2.5 mph NW4.0 kmh NW 9.8 mph15.8 kmh 29.85 in1010.8 mb 0.00 in0.0 mm 0.00 in0.0 mm 0.00 in0.0 mm
01:24 PM 51.1°F10.6°C 43.9°F6.6°C 81% 2.5 mph WNW4.0 kmh WNW 6.3 mph10.1 kmh 29.86 in1011.2 mb 0.00 in0.0 mm 0.00 in0.0 mm 0.00 in0.0 mm
01:04 PM 50.7°F10.4°C 44.2°F6.8°C 83% 1.8 mph NW2.9 kmh NW 6.9 mph11.1 kmh 29.87 in1011.5 mb 0.00 in0.0 mm 0.00 in0.0 mm 0.00 in0.0 mm
12:54 PM 50.5°F10.3°C 44.1°F6.7°C 83% 1.9 mph WNW3.1 kmh WNW -- 29.87 in1011.5 mb 0.00 in0.0 mm 0.00 in0.0 mm 0.00 in0.0 mm
12:44 PM 50.4°F10.2°C 44.4°F6.9°C 84% 2.5 mph NNW4.0 kmh NNW 6.3 mph10.1 kmh 29.88 in1011.9 mb 0.00 in0.0 mm 0.00 in0.0 mm 0.00 in0.0 mm
12:34 PM 50.0°F10.0°C 44.1°F6.7°C 84% 2.5 mph NW4.0 kmh NW 6.9 mph11.1 kmh 29.89 in1012.2 mb 0.00 in0.0 mm 0.00 in0.0 mm 0.00 in0.0 mm
12:09 PM 49.5°F9.7°C 43.9°F6.6°C 85% - N16091.8 kmh N -- 29.89 in1012.2 mb 0.00 in0.0 mm 0.00 in0.0 mm 0.00 in0.0 mm
12:05 PM 48.7°F9.3°C 43.9°F6.6°C 87% 1.9 mph W3.1 kmh W -- 29.89 in1012.2 mb 0.00 in0.0 mm 0.00 in0.0 mm 0.00 in0.0 mm
11:56 AM 48.7°F9.3°C 43.9°F6.6°C 87% 1.8 mph W2.9 kmh W 4.9 mph7.9 kmh 29.89 in1012.2 mb 0.00 in0.0 mm 0.00 in0.0 mm 0.00 in0.0 mm
11:27 AM 48.4°F9.1°C 43.5°F6.4°C 87% 1.8 mph WNW2.9 kmh WNW 13.6 mph21.9 kmh 29.90 in1012.5 mb 0.00 in0.0 mm 0.00 in0.0 mm 0.00 in0.0 mm
11:07 AM 48.0°F8.9°C 43.2°F6.2°C 87% 1.8 mph N2.9 kmh N 6.9 mph11.1 kmh 29.90 in1012.5 mb 0.00 in0.0 mm 0.00 in0.0 mm 0.00 in0.0 mm
10:57 AM 47.7°F8.7°C 43.2°F6.2°C 88% 2.5 mph NNW4.0 kmh NNW -- 29.90 in1012.5 mb 0.00 in0.0 mm 0.00 in0.0 mm 0.00 in0.0 mm
10:46 AM 47.7°F8.7°C 42.8°F6.0°C 87% 2.5 mph NNW4.0 kmh NNW 8.7 mph14.0 kmh 29.90 in1012.5 mb 0.00 in0.0 mm 0.00 in0.0 mm 0.00 in0.0 mm
10:26 AM 47.8°F8.8°C 43.0°F6.1°C 87% 1.8 mph NW2.9 kmh NW 7.4 mph11.9 kmh 29.91 in1012.9 mb 0.00 in0.0 mm 0.00 in0.0 mm 0.00 in0.0 mm
10:06 AM 47.7°F8.7°C 42.8°F6.0°C 87% 2.5 mph 4.0 kmh 9.8 mph15.8 kmh 29.90 in1012.5 mb 0.00 in0.0 mm 0.00 in0.0 mm 0.00 in0.0 mm
09:56 AM 47.3°F8.5°C 42.8°F6.0°C 88% 1.9 mph N3.1 kmh N -- 29.90 in1012.5 mb 0.00 in0.0 mm 0.00 in0.0 mm 0.00 in0.0 mm
09:46 AM 47.1°F8.4°C 42.6°F5.9°C 88% 2.5 mph N4.0 kmh N 8.7 mph14.0 kmh 29.91 in1012.9 mb 0.00 in0.0 mm 0.00 in0.0 mm 0.00 in0.0 mm
09:26 AM 46.6°F8.1°C 42.1°F5.6°C 88% 1.8 mph NNW2.9 kmh NNW 6.3 mph10.1 kmh 29.91 in1012.9 mb 0.00 in0.0 mm 0.00 in0.0 mm 0.00 in0.0 mm
09:06 AM 46.2°F7.9°C 42.3°F5.7°C 89% 2.5 mph NW4.0 kmh NW 9.4 mph15.1 kmh 29.91 in1012.9 mb 0.00 in0.0 mm 0.00 in0.0 mm 0.00 in0.0 mm
08:55 AM 46.0°F7.8°C 42.1°F5.6°C 89% 2.5 mph NW4.0 kmh NW -- 29.91 in1012.9 mb 0.00 in0.0 mm 0.00 in0.0 mm 0.00 in0.0 mm
08:46 AM 45.7°F7.6°C 41.7°F5.4°C 89% 1.8 mph N2.9 kmh N 9.4 mph15.1 kmh 29.91 in1012.9 mb 0.00 in0.0 mm 0.00 in0.0 mm 0.00 in0.0 mm
08:25 AM 45.3°F7.4°C 41.7°F5.4°C 90% 1.8 mph W2.9 kmh W 8.7 mph14.0 kmh 29.91 in1012.9 mb 0.00 in0.0 mm 0.00 in0.0 mm 0.00 in0.0 mm
08:17 AM 45.0°F7.2°C 41.7°F5.4°C 91% 1.8 mph NW2.9 kmh NW 4.9 mph7.9 kmh 29.92 in1013.2 mb 0.00 in0.0 mm 0.00 in0.0 mm 0.00 in0.0 mm
08:06 AM 44.8°F7.1°C 41.5°F5.3°C 91% 1.9 mph WSW3.1 kmh WSW -- 29.92 in1013.2 mb 0.00 in0.0 mm 0.00 in0.0 mm 0.00 in0.0 mm
07:51 AM 44.8°F7.1°C 41.5°F5.3°C 91% 1.8 mph WSW2.9 kmh WSW 4.3 mph6.9 kmh 29.92 in1013.2 mb 0.00 in0.0 mm 0.00 in0.0 mm 0.00 in0.0 mm
07:38 AM 44.8°F7.1°C 41.5°F5.3°C 91% 1.8 mph SSW2.9 kmh SSW 4.9 mph7.9 kmh 29.92 in1013.2 mb 0.00 in0.0 mm 0.00 in0.0 mm 0.00 in0.0 mm
07:16 AM 44.2°F6.8°C 41.4°F5.2°C 92% 1.8 mph WSW2.9 kmh WSW 4.3 mph6.9 kmh 29.92 in1013.2 mb 0.00 in0.0 mm 0.00 in0.0 mm 0.00 in0.0 mm
06:56 AM 44.1°F6.7°C 40.8°F4.9°C 91% 0.7 mph SSW1.1 kmh SSW 3.1 mph5.0 kmh 29.93 in1013.5 mb 0.00 in0.0 mm 0.00 in0.0 mm 0.00 in0.0 mm
06:51 AM 44.1°F6.7°C 41.2°F5.1°C 92% 0.6 mph 1.0 kmh -- 29.92 in1013.2 mb 0.00 in0.0 mm 0.00 in0.0 mm 0.00 in0.0 mm
06:38 AM 44.1°F6.7°C 40.8°F4.9°C 91% 0.7 mph SW1.1 kmh SW 3.1 mph5.0 kmh 29.93 in1013.5 mb 0.00 in0.0 mm 0.00 in0.0 mm 0.00 in0.0 mm
06:17 AM 44.4°F6.9°C 40.8°F4.9°C 90% 1.8 mph N2.9 kmh N 4.9 mph7.9 kmh 29.93 in1013.5 mb 0.00 in0.0 mm 0.00 in0.0 mm 0.00 in0.0 mm
05:57 AM 44.6°F7.0°C 41.0°F5.0°C 90% 1.8 mph 2.9 kmh 4.3 mph6.9 kmh 29.93 in1013.5 mb 0.00 in0.0 mm 0.00 in0.0 mm 0.00 in0.0 mm
05:51 AM 44.4°F6.9°C 41.2°F5.1°C 91% 1.9 mph NNE3.1 kmh NNE -- 29.93 in1013.5 mb 0.00 in0.0 mm 0.00 in0.0 mm 0.00 in0.0 mm
05:36 AM 44.4°F6.9°C 41.2°F5.1°C 91% 1.8 mph N2.9 kmh N 4.9 mph7.9 kmh 29.94 in1013.9 mb 0.00 in0.0 mm 0.00 in0.0 mm 0.00 in0.0 mm
05:18 AM 44.2°F6.8°C 41.0°F5.0°C 91% 0.7 mph NW1.1 kmh NW 6.3 mph10.1 kmh 29.95 in1014.2 mb 0.00 in0.0 mm 0.00 in0.0 mm 0.00 in0.0 mm
05:05 AM 44.2°F6.8°C 41.0°F5.0°C 91% 1.9 mph NNW3.1 kmh NNW -- 29.95 in1014.2 mb 0.00 in0.0 mm 0.00 in0.0 mm 0.00 in0.0 mm
04:56 AM 44.1°F6.7°C 40.8°F4.9°C 91% 1.8 mph N2.9 kmh N 4.9 mph7.9 kmh 29.94 in1013.9 mb 0.00 in0.0 mm 0.00 in0.0 mm 0.00 in0.0 mm
04:38 AM 43.9°F6.6°C 40.6°F4.8°C 91% 1.8 mph 2.9 kmh 4.9 mph7.9 kmh 29.95 in1014.2 mb 0.00 in0.0 mm 0.00 in0.0 mm 0.00 in0.0 mm
04:18 AM 43.9°F6.6°C 40.6°F4.8°C 91% 0.7 mph W1.1 kmh W 3.1 mph5.0 kmh 29.96 in1014.6 mb 0.00 in0.0 mm 0.00 in0.0 mm 0.00 in0.0 mm
04:06 AM 43.9°F6.6°C 40.3°F4.6°C 90% 0.6 mph SW1.0 kmh SW -- 29.96 in1014.6 mb 0.00 in0.0 mm 0.00 in0.0 mm 0.00 in0.0 mm
03:57 AM 43.9°F6.6°C 40.3°F4.6°C 90% 1.8 mph W2.9 kmh W 4.3 mph6.9 kmh 29.96 in1014.6 mb 0.00 in0.0 mm 0.00 in0.0 mm 0.00 in0.0 mm
03:36 AM 43.5°F6.4°C 40.3°F4.6°C 91% 0.7 mph W1.1 kmh W 3.1 mph5.0 kmh 29.98 in1015.2 mb 0.00 in0.0 mm 0.00 in0.0 mm 0.00 in0.0 mm
03:16 AM 43.3°F6.3°C 40.1°F4.5°C 91% 0.7 mph NW1.1 kmh NW 4.3 mph6.9 kmh 29.98 in1015.2 mb 0.00 in0.0 mm 0.00 in0.0 mm 0.00 in0.0 mm
03:06 AM 43.0°F6.1°C 40.1°F4.5°C 92% 0.6 mph NW1.0 kmh NW -- 29.98 in1015.2 mb 0.00 in0.0 mm 0.00 in0.0 mm 0.00 in0.0 mm
02:56 AM 42.8°F6.0°C 39.9°F4.4°C 92% 1.8 mph N2.9 kmh N 3.1 mph5.0 kmh 29.98 in1015.2 mb 0.00 in0.0 mm 0.00 in0.0 mm 0.00 in0.0 mm
02:36 AM 42.3°F5.7°C 40.1°F4.5°C 94% 0.7 mph NW1.1 kmh NW 2.5 mph4.0 kmh 30.00 in1015.9 mb 0.00 in0.0 mm 0.00 in0.0 mm 0.00 in0.0 mm
02:16 AM 41.2°F5.1°C 39.7°F4.3°C 96% 0.7 mph NW1.1 kmh NW 2.5 mph4.0 kmh 29.99 in1015.6 mb 0.00 in0.0 mm 0.00 in0.0 mm 0.00 in0.0 mm
02:05 AM 40.6°F4.8°C 39.2°F4.0°C 96% 1.9 mph WSW3.1 kmh WSW -- 29.99 in1015.6 mb 0.00 in0.0 mm 0.00 in0.0 mm 0.00 in0.0 mm
01:57 AM 40.5°F4.7°C 39.0°F3.9°C 96% 0.7 mph W1.1 kmh W 3.1 mph5.0 kmh 29.99 in1015.6 mb 0.00 in0.0 mm 0.00 in0.0 mm 0.00 in0.0 mm
01:36 AM 40.1°F4.5°C 39.0°F3.9°C 97% 1.8 mph WSW2.9 kmh WSW 3.1 mph5.0 kmh 30.00 in1015.9 mb 0.00 in0.0 mm 0.00 in0.0 mm 0.00 in0.0 mm
01:08 AM 40.1°F4.5°C 38.7°F3.7°C 96% 0.7 mph W1.1 kmh W 2.5 mph4.0 kmh 29.99 in1015.6 mb 0.00 in0.0 mm 0.00 in0.0 mm 0.00 in0.0 mm
01:06 AM 40.1°F4.5°C 39.0°F3.9°C 97% 2.5 mph WSW4.0 kmh WSW -- 29.99 in1015.6 mb 0.00 in0.0 mm 0.00 in0.0 mm 0.00 in0.0 mm
12:48 AM 40.1°F4.5°C 39.0°F3.9°C 97% 2.5 mph WSW4.0 kmh WSW 6.3 mph10.1 kmh 29.99 in1015.6 mb 0.00 in0.0 mm 0.00 in0.0 mm 0.00 in0.0 mm
12:28 AM 40.1°F4.5°C 38.3°F3.5°C 95% 0.7 mph N1.1 kmh N 1.8 mph2.9 kmh 29.98 in1015.2 mb 0.00 in0.0 mm 0.00 in0.0 mm 0.00 in0.0 mm
12:08 AM 40.5°F4.7°C 38.7°F3.7°C 95% 1.8 mph WSW2.9 kmh WSW 4.3 mph6.9 kmh 29.99 in1015.6 mb 0.00 in0.0 mm 0.00 in0.0 mm 0.00 in0.0 mm